Terminal Aerodrome Forecast
Issued by NWS

Home | Current Version | Previous Version | Text Only | Print | Product List | Glossary On
Versions: 1 2 3 4 5 6 7 8 9 10 11 12 13 14 15 16 17 18 19 20
000
FTUS46 KMFR 231144
TAFRBG
TAF
KRBG 231144Z 2312/2412 00000KT 1/2SM FG OVC002
     FM231600 VRB02KT 3SM BR OVC003
     FM231800 VRB02KT P6SM OVC007
     FM231900 18003KT P6SM FEW040 BKN100 BKN250
     FM240800 00000KT 1SM BR BKN005 BKN100 BKN200=

USA.gov is the U.S. government's official web portal to all federal, state and local government web resources and services.